createdAt,value
2022-09-13T00:01:00.082Z,29.55
2022-09-13T00:03:28.673Z,30.00
2022-09-13T00:05:56.743Z,33.55
2022-09-13T00:08:25.072Z,32.22
2022-09-13T00:10:53.008Z,37.10
2022-09-13T00:13:20.985Z,36.05
2022-09-13T00:15:51.062Z,38.75
2022-09-13T00:18:20.516Z,35.80
2022-09-13T00:20:48.465Z,36.50
2022-09-13T00:23:16.309Z,37.88
2022-09-13T00:25:44.298Z,37.15
2022-09-13T00:28:21.176Z,36.00
2022-09-13T00:30:49.116Z,33.47
2022-09-13T00:33:17.025Z,34.95
2022-09-13T00:35:46.319Z,33.97
2022-09-13T00:38:14.163Z,31.05
2022-09-13T00:40:42.056Z,28.05
2022-09-13T00:43:17.386Z,25.10
2022-09-13T00:45:45.977Z,23.92
2022-09-13T00:48:20.253Z,29.33
2022-09-13T00:50:54.172Z,29.77
2022-09-13T00:53:27.697Z,29.70
2022-09-13T00:55:58.822Z,29.10
2022-09-13T00:58:31.966Z,29.50
2022-09-13T01:01:01.157Z,28.70
2022-09-13T01:03:32.469Z,30.00
2022-09-13T01:06:07.138Z,30.30
2022-09-13T01:08:37.884Z,27.15
2022-09-13T01:11:07.946Z,27.63
2022-09-13T01:13:37.179Z,29.67
2022-09-13T01:16:05.162Z,33.92
2022-09-13T01:18:33.167Z,31.30
2022-09-13T01:21:25.453Z,30.92
2022-09-13T01:24:22.449Z,31.23
2022-09-13T01:27:16.353Z,32.40
2022-09-13T01:32:47.620Z,32.28
2022-09-13T01:35:23.805Z,33.75
2022-09-13T01:37:56.613Z,37.35
2022-09-13T01:40:48.361Z,36.65
2022-09-13T01:43:28.697Z,36.70
2022-09-13T01:46:05.924Z,36.97
2022-09-13T01:48:49.390Z,38.42
2022-09-13T01:51:23.683Z,38.15
2022-09-13T01:54:00.624Z,36.60
2022-09-13T01:56:34.510Z,35.90
2022-09-13T01:59:06.689Z,36.15
2022-09-13T02:01:39.646Z,35.45
2022-09-13T02:04:13.278Z,36.17
2022-09-13T02:06:45.981Z,35.72
2022-09-13T02:09:21.338Z,34.90
2022-09-13T02:11:55.010Z,37.65
2022-09-13T02:14:26.209Z,37.83
2022-09-13T02:16:58.969Z,36.47
2022-09-13T02:19:35.128Z,35.90
2022-09-13T02:22:07.346Z,37.13
2022-09-13T02:24:38.191Z,34.75
2022-09-13T02:27:10.202Z,37.40
2022-09-13T02:29:41.317Z,34.83
2022-09-13T02:32:13.521Z,35.33
2022-09-13T02:34:46.650Z,33.63
2022-09-13T02:37:18.796Z,34.03
2022-09-13T02:39:52.192Z,35.95
2022-09-13T02:42:23.122Z,33.53
2022-09-13T02:44:55.409Z,32.80
2022-09-13T02:47:35.192Z,33.53
2022-09-13T02:50:20.832Z,34.28
2022-09-13T02:52:54.305Z,33.60
2022-09-13T02:55:27.824Z,32.75
2022-09-13T02:58:02.358Z,32.33
2022-09-13T03:00:31.632Z,32.78
2022-09-13T03:03:04.143Z,36.13
2022-09-13T03:05:33.640Z,36.20
2022-09-13T03:08:03.167Z,35.60
2022-09-13T03:10:40.501Z,35.88
2022-09-13T03:13:38.719Z,36.13
2022-09-13T03:16:18.968Z,37.67
2022-09-13T03:19:00.183Z,35.05
2022-09-13T03:21:49.939Z,35.83
2022-09-13T03:24:24.821Z,34.58
2022-09-13T03:27:06.656Z,34.33
2022-09-13T03:29:41.551Z,35.47
2022-09-13T03:32:22.348Z,36.20
2022-09-13T03:34:55.686Z,36.03
2022-09-13T03:37:29.408Z,35.90
2022-09-13T03:40:01.574Z,36.20
2022-09-13T03:42:35.818Z,33.72
2022-09-13T03:45:06.099Z,35.95
2022-09-13T03:47:36.517Z,34.17
2022-09-13T03:50:06.068Z,34.28
2022-09-13T03:52:36.072Z,33.92
2022-09-13T03:55:04.193Z,33.75
2022-09-13T03:57:32.161Z,35.33
2022-09-13T04:00:00.401Z,35.55
2022-09-13T04:02:29.179Z,35.97
2022-09-13T04:04:57.627Z,35.65
2022-09-13T04:07:26.437Z,34.80
2022-09-13T04:09:56.072Z,35.88
2022-09-13T04:12:24.136Z,34.88
2022-09-13T04:14:52.500Z,36.05
2022-09-13T04:17:20.782Z,36.22
2022-09-13T04:19:48.712Z,36.55
2022-09-13T04:22:16.904Z,38.53
2022-09-13T04:24:44.810Z,36.17
2022-09-13T04:27:14.263Z,38.63
2022-09-13T04:29:42.168Z,38.50
2022-09-13T04:32:11.580Z,39.83
2022-09-13T04:34:39.506Z,39.42
2022-09-13T04:37:07.473Z,40.50
2022-09-13T04:39:35.377Z,39.03
2022-09-13T04:42:03.653Z,38.60
2022-09-13T04:44:33.437Z,38.15
2022-09-13T04:47:01.490Z,37.90
2022-09-13T04:49:29.428Z,36.80
2022-09-13T04:51:57.565Z,38.95
2022-09-13T04:54:25.503Z,39.47
2022-09-13T04:56:53.903Z,39.22
2022-09-13T04:59:21.785Z,40.20
2022-09-13T05:01:51.160Z,39.03
2022-09-13T05:04:19.394Z,38.83
2022-09-13T05:06:48.493Z,39.10
2022-09-13T05:09:16.728Z,39.75
2022-09-13T05:11:45.221Z,39.75
2022-09-13T05:14:13.918Z,40.25
2022-09-13T05:16:42.063Z,41.50
2022-09-13T05:19:13.162Z,41.00
2022-09-13T05:21:41.172Z,37.25
2022-09-13T05:24:09.511Z,39.83
2022-09-13T05:26:37.832Z,38.05
2022-09-13T05:29:06.078Z,39.28
2022-09-13T05:31:37.052Z,39.15
2022-09-13T05:34:07.650Z,41.50
2022-09-13T05:36:37.401Z,39.63
2022-09-13T05:39:29.297Z,38.95
2022-09-13T05:41:54.656Z,39.85
2022-09-13T05:44:22.954Z,37.70
2022-09-13T05:46:50.984Z,39.70
2022-09-13T05:49:19.120Z,42.75
2022-09-13T05:51:48.466Z,41.08
2022-09-13T05:54:16.721Z,40.83
2022-09-13T05:56:44.605Z,40.85
2022-09-13T05:59:14.303Z,39.10
2022-09-13T06:01:42.553Z,39.70
2022-09-13T06:04:12.560Z,37.97
2022-09-13T06:06:40.609Z,39.38
2022-09-13T06:09:13.281Z,38.20
2022-09-13T06:11:41.363Z,36.05
2022-09-13T06:14:09.653Z,40.17
2022-09-13T06:16:37.987Z,39.13
2022-09-13T06:19:06.159Z,39.00
2022-09-13T06:21:34.175Z,38.90
2022-09-13T06:24:02.391Z,39.40
2022-09-13T06:26:32.050Z,39.40
2022-09-13T06:29:00.355Z,38.72
2022-09-13T06:31:29.389Z,39.42
2022-09-13T06:33:59.627Z,36.97
2022-09-13T06:36:28.024Z,37.00
2022-09-13T06:38:57.003Z,37.78
2022-09-13T06:41:28.367Z,33.95
2022-09-13T06:43:58.914Z,33.47
2022-09-13T06:46:28.476Z,31.42
2022-09-13T06:48:57.814Z,31.70
2022-09-13T06:51:26.727Z,28.80
2022-09-13T06:53:56.696Z,28.23
2022-09-13T06:56:26.314Z,25.65
2022-09-13T06:58:59.861Z,25.52
2022-09-13T07:01:30.213Z,25.02
2022-09-13T07:04:00.926Z,22.77
2022-09-13T07:06:31.011Z,24.15
2022-09-13T07:09:01.193Z,24.15
2022-09-13T07:11:31.997Z,24.02
2022-09-13T07:14:02.024Z,23.75
2022-09-13T07:16:31.462Z,23.33
2022-09-13T07:19:01.075Z,22.08
2022-09-13T07:21:30.169Z,22.17
2022-09-13T07:23:58.784Z,20.35
2022-09-13T07:26:28.031Z,20.73
2022-09-13T07:28:58.620Z,23.00
2022-09-13T07:31:29.481Z,24.42
2022-09-13T07:33:59.508Z,24.20
2022-09-13T07:36:29.110Z,25.48
2022-09-13T07:38:58.546Z,24.83
2022-09-13T07:41:28.103Z,24.98
2022-09-13T07:43:58.809Z,23.85
2022-09-13T07:46:32.418Z,23.52
2022-09-13T07:49:02.465Z,22.90
2022-09-13T07:51:35.198Z,22.65
2022-09-13T07:54:04.612Z,22.75
2022-09-13T07:56:34.218Z,22.75
2022-09-13T07:59:03.562Z,21.95
2022-09-13T08:01:39.984Z,21.00
2022-09-13T08:04:09.775Z,21.27
2022-09-13T08:06:39.355Z,21.17
2022-09-13T08:09:09.068Z,21.80
2022-09-13T08:11:39.026Z,21.80
2022-09-13T08:14:08.532Z,23.77
2022-09-13T08:16:39.375Z,23.20
2022-09-13T08:19:08.687Z,21.90
2022-09-13T08:21:38.533Z,21.55
2022-09-13T08:24:08.799Z,21.85
2022-09-13T08:26:37.992Z,21.60
2022-09-13T08:29:07.460Z,22.23
2022-09-13T08:31:38.000Z,21.23
2022-09-13T08:34:06.203Z,22.13
2022-09-13T08:36:49.867Z,22.17
2022-09-13T08:39:41.585Z,20.48
2022-09-13T08:43:01.176Z,21.58
2022-09-13T08:45:30.240Z,22.55
2022-09-13T08:48:04.507Z,22.52
2022-09-13T08:50:36.223Z,23.48
2022-09-13T08:53:30.316Z,23.60
2022-09-13T08:56:07.821Z,23.45
2022-09-13T08:58:56.017Z,21.65
2022-09-13T09:01:41.273Z,21.05
2022-09-13T09:04:24.515Z,20.65
2022-09-13T09:06:57.848Z,21.70
2022-09-13T09:09:26.492Z,21.75
2022-09-13T09:12:01.477Z,23.08
2022-09-13T09:14:34.776Z,22.52
2022-09-13T09:17:07.969Z,23.35
2022-09-13T09:19:40.735Z,24.45
2022-09-13T09:22:14.977Z,23.08
2022-09-13T09:24:48.809Z,21.85
2022-09-13T09:27:19.838Z,20.25
2022-09-13T09:29:49.753Z,21.73
2022-09-13T09:32:36.252Z,20.30
2022-09-13T09:35:20.212Z,21.25
2022-09-13T09:38:01.377Z,20.90
2022-09-13T09:40:31.728Z,24.23
2022-09-13T09:43:00.375Z,26.23
2022-09-13T09:45:31.302Z,26.27
2022-09-13T09:48:06.576Z,26.55
2022-09-13T09:50:40.591Z,24.45
2022-09-13T09:53:14.345Z,25.33
2022-09-13T09:55:47.557Z,24.88
2022-09-13T09:58:17.013Z,25.05
2022-09-13T10:00:59.850Z,24.60
2022-09-13T10:03:33.789Z,22.20
2022-09-13T10:06:09.769Z,22.73
2022-09-13T10:08:41.039Z,23.80
2022-09-13T10:11:10.547Z,23.33
2022-09-13T10:13:41.843Z,24.20
2022-09-13T10:16:27.196Z,21.83
2022-09-13T10:18:55.750Z,22.55
2022-09-13T10:21:26.465Z,22.80
2022-09-13T10:24:17.612Z,22.67
2022-09-13T10:26:45.995Z,23.38
2022-09-13T10:29:17.850Z,21.92
2022-09-13T10:31:48.140Z,21.13
2022-09-13T10:34:20.634Z,20.67
2022-09-13T10:36:55.577Z,22.40
2022-09-13T10:39:25.680Z,21.73
2022-09-13T10:41:58.037Z,22.83
2022-09-13T10:44:37.063Z,21.83
2022-09-13T10:47:11.799Z,21.00
2022-09-13T10:49:47.032Z,19.40
2022-09-13T10:52:34.456Z,14.35
2022-09-13T10:55:29.535Z,8.10
2022-09-13T10:58:14.627Z,4.75
2022-09-13T11:00:54.310Z,5.07
2022-09-13T11:03:36.083Z,5.40
2022-09-13T11:06:11.383Z,3.35
2022-09-13T11:08:47.027Z,3.38
2022-09-13T11:11:21.555Z,3.80
2022-09-13T11:14:05.524Z,3.50
2022-09-13T11:16:46.193Z,2.75
2022-09-13T11:19:41.608Z,3.10
2022-09-13T11:22:25.333Z,3.42
2022-09-13T11:25:07.482Z,2.58
2022-09-13T11:27:45.328Z,2.35
2022-09-13T11:30:18.639Z,2.00
2022-09-13T11:33:26.577Z,2.20
2022-09-13T11:36:11.955Z,1.77
2022-09-13T11:38:52.929Z,1.80
2022-09-13T11:41:35.518Z,1.65
2022-09-13T11:44:22.067Z,2.03
2022-09-13T11:46:56.285Z,1.70
2022-09-13T11:50:00.056Z,1.70
2022-09-13T11:52:41.571Z,1.50
2022-09-13T11:55:18.790Z,1.50
2022-09-13T11:57:52.316Z,1.70
2022-09-13T12:00:23.533Z,1.77
2022-09-13T12:03:03.740Z,1.60
2022-09-13T12:05:36.460Z,1.50
2022-09-13T12:08:12.011Z,1.52
2022-09-13T12:10:46.971Z,1.50
2022-09-13T12:13:23.387Z,1.70
2022-09-13T12:15:56.340Z,1.38
2022-09-13T12:18:29.242Z,1.60
2022-09-13T12:21:01.866Z,1.70
2022-09-13T12:23:36.563Z,1.25
2022-09-13T12:26:08.989Z,1.50
2022-09-13T12:28:43.862Z,1.42
2022-09-13T12:31:16.161Z,1.60
2022-09-13T12:33:44.560Z,1.40
2022-09-13T12:36:42.001Z,1.58
2022-09-13T12:39:34.055Z,1.02
2022-09-13T12:42:26.197Z,1.63
2022-09-13T12:45:13.187Z,1.52
2022-09-13T12:48:20.749Z,1.27
2022-09-13T12:51:13.525Z,1.30
2022-09-13T12:54:18.653Z,1.10
2022-09-13T12:56:58.973Z,1.50
2022-09-13T12:59:49.718Z,1.25
2022-09-13T13:02:30.407Z,1.50
2022-09-13T13:05:04.852Z,1.50
2022-09-13T13:07:36.779Z,1.10
2022-09-13T13:10:06.495Z,1.75
2022-09-13T13:12:36.918Z,1.38
2022-09-13T13:15:08.660Z,1.27
2022-09-13T13:17:49.434Z,1.25
2022-09-13T13:20:54.500Z,1.27
2022-09-13T13:23:26.994Z,1.33
2022-09-13T13:26:05.738Z,1.35
2022-09-13T13:29:10.238Z,1.48
2022-09-13T13:31:42.688Z,1.02
2022-09-13T13:34:32.873Z,1.42
2022-09-13T13:37:04.304Z,1.10
2022-09-13T13:39:38.250Z,1.30
2022-09-13T13:42:24.234Z,1.52
2022-09-13T13:45:14.754Z,1.30
2022-09-13T13:48:11.963Z,1.08
2022-09-13T13:51:19.405Z,1.48
2022-09-13T13:53:51.750Z,1.38
2022-09-13T13:56:46.017Z,1.25
2022-09-13T13:59:18.783Z,1.38
2022-09-13T14:01:50.978Z,1.23
2022-09-13T14:04:59.275Z,1.30
2022-09-13T14:08:02.633Z,1.38
2022-09-13T14:10:42.489Z,1.30
2022-09-13T14:13:43.119Z,1.52
2022-09-13T14:16:24.817Z,1.48
2022-09-13T14:19:18.572Z,1.50
2022-09-13T14:21:46.745Z,1.48
2022-09-13T14:24:20.714Z,1.25
2022-09-13T14:26:51.701Z,1.48
2022-09-13T14:29:21.554Z,1.30
2022-09-13T14:31:50.823Z,1.35
2022-09-13T14:34:24.124Z,1.30
2022-09-13T14:36:57.871Z,1.20
2022-09-13T14:39:27.795Z,1.20
2022-09-13T14:42:13.947Z,1.48
2022-09-13T14:44:46.139Z,1.50
2022-09-13T14:47:19.285Z,1.35
2022-09-13T14:49:51.031Z,1.08
2022-09-13T14:52:25.549Z,1.30
2022-09-13T14:54:57.732Z,1.40
2022-09-13T14:57:29.917Z,1.08
2022-09-13T15:00:01.210Z,1.30
2022-09-13T15:02:32.465Z,1.60
2022-09-13T15:05:02.331Z,1.23
2022-09-13T15:07:31.993Z,1.23
2022-09-13T15:10:09.875Z,1.70
2022-09-13T15:12:38.329Z,1.45
2022-09-13T15:15:33.084Z,1.67
2022-09-13T15:18:02.980Z,1.30
2022-09-13T15:20:45.962Z,1.40
2022-09-13T15:23:16.824Z,1.60
2022-09-13T15:25:53.241Z,1.50
2022-09-13T15:28:27.399Z,1.20
2022-09-13T15:30:56.759Z,1.30
2022-09-13T15:33:28.320Z,1.42
2022-09-13T15:36:14.583Z,1.60
2022-09-13T15:39:00.018Z,1.10
2022-09-13T15:41:33.009Z,1.40
2022-09-13T15:44:01.938Z,1.80
2022-09-13T15:46:30.651Z,1.25
2022-09-13T15:49:00.758Z,1.20
2022-09-13T15:51:28.760Z,1.25
2022-09-13T15:53:56.838Z,1.30
2022-09-13T15:56:37.831Z,1.23
2022-09-13T15:59:05.960Z,0.90
2022-09-13T16:01:33.974Z,1.88
2022-09-13T16:04:03.954Z,1.83
2022-09-13T16:06:31.939Z,1.30
2022-09-13T16:09:00.483Z,1.58
2022-09-13T16:11:28.729Z,1.60
2022-09-13T16:13:58.649Z,1.60
2022-09-13T16:16:26.573Z,1.63
2022-09-13T16:18:54.555Z,1.25
2022-09-13T16:21:22.715Z,1.15
2022-09-13T16:23:50.670Z,0.98
2022-09-13T16:26:18.547Z,1.77
2022-09-13T16:28:46.527Z,1.48
2022-09-13T16:31:16.668Z,1.58
2022-09-13T16:33:44.673Z,1.08
2022-09-13T16:36:14.035Z,1.63
2022-09-13T16:38:42.238Z,1.48
2022-09-13T16:41:10.103Z,1.17
2022-09-13T16:43:38.245Z,1.60
2022-09-13T16:46:10.408Z,1.30
2022-09-13T16:48:39.856Z,1.88
2022-09-13T16:51:12.342Z,1.52
2022-09-13T16:53:42.553Z,1.40
2022-09-13T16:56:12.100Z,1.60
2022-09-13T16:58:42.055Z,1.38
2022-09-13T17:01:11.973Z,1.63
2022-09-13T17:03:41.625Z,1.60
2022-09-13T17:06:11.760Z,1.63
2022-09-13T17:08:41.730Z,1.60
2022-09-13T17:11:12.952Z,1.67
2022-09-13T17:13:42.140Z,1.50
2022-09-13T17:16:25.200Z,1.50
2022-09-13T17:18:55.295Z,2.13
2022-09-13T17:21:23.351Z,1.80
2022-09-13T17:23:51.622Z,1.80
2022-09-13T17:26:19.833Z,1.55
2022-09-13T17:28:47.711Z,1.75
2022-09-13T17:31:18.616Z,1.75
2022-09-13T17:33:47.018Z,1.63
2022-09-13T17:36:17.191Z,1.67
2022-09-13T17:38:45.198Z,1.67
2022-09-13T17:41:15.328Z,1.67
2022-09-13T17:43:44.463Z,1.65
2022-09-13T17:46:14.417Z,1.60
2022-09-13T17:48:42.798Z,1.80
2022-09-13T17:51:13.710Z,1.77
2022-09-13T17:53:45.348Z,2.30
2022-09-13T17:56:17.486Z,2.33
2022-09-13T17:58:45.567Z,2.00
2022-09-13T18:01:14.473Z,1.67
2022-09-13T18:03:42.864Z,1.70
2022-09-13T18:06:14.186Z,1.70
2022-09-13T18:08:43.993Z,2.13
2022-09-13T18:11:14.447Z,2.10
2022-09-13T18:13:44.335Z,2.20
2022-09-13T18:16:20.102Z,2.08
2022-09-13T18:18:49.883Z,1.90
2022-09-13T18:21:19.583Z,2.00
2022-09-13T18:23:50.308Z,2.03
2022-09-13T18:26:19.490Z,2.22
2022-09-13T18:28:48.280Z,2.30
2022-09-13T18:31:18.132Z,1.90
2022-09-13T18:33:48.670Z,1.80
2022-09-13T18:36:22.601Z,3.15
2022-09-13T18:38:53.224Z,2.28
2022-09-13T18:41:23.194Z,2.30
2022-09-13T18:43:55.808Z,2.72
2022-09-13T18:46:26.912Z,2.30
2022-09-13T18:48:57.802Z,2.50
2022-09-13T18:51:31.748Z,2.40
2022-09-13T18:54:03.382Z,2.92
2022-09-13T18:56:36.386Z,2.83
2022-09-13T18:59:10.243Z,2.70
2022-09-13T19:01:44.027Z,2.65
2022-09-13T19:04:17.957Z,2.78
2022-09-13T19:06:48.715Z,2.92
2022-09-13T19:09:21.219Z,3.30
2022-09-13T19:11:52.202Z,3.28
2022-09-13T19:14:23.620Z,3.40
2022-09-13T19:16:53.028Z,3.45
2022-09-13T19:19:21.336Z,3.50
2022-09-13T19:21:55.590Z,3.20
2022-09-13T19:24:26.865Z,3.08
2022-09-13T19:26:55.137Z,3.15
2022-09-13T19:29:24.940Z,3.33
2022-09-13T19:31:56.127Z,2.80
2022-09-13T19:34:24.666Z,3.13
2022-09-13T19:36:58.154Z,2.60
2022-09-13T19:39:30.493Z,2.50
2022-09-13T19:42:00.538Z,2.80
2022-09-13T19:44:29.139Z,2.42
2022-09-13T19:47:36.180Z,2.55
2022-09-13T19:49:45.489Z,2.55
2022-09-13T19:52:13.392Z,2.47
2022-09-13T19:54:42.954Z,2.80
2022-09-13T19:57:10.912Z,2.60
2022-09-13T19:59:38.983Z,2.35
2022-09-13T20:02:07.027Z,2.47
2022-09-13T20:04:35.174Z,3.33
2022-09-13T20:07:03.688Z,2.85
2022-09-13T20:09:32.015Z,2.78
2022-09-13T20:12:02.201Z,2.60
2022-09-13T20:14:30.226Z,2.60
2022-09-13T20:16:58.921Z,2.40
2022-09-13T20:19:47.582Z,2.35
2022-09-13T20:22:15.274Z,2.25
2022-09-13T20:24:43.260Z,2.45
2022-09-13T20:27:15.663Z,2.30
2022-09-13T20:29:43.539Z,2.10
2022-09-13T20:32:12.140Z,2.58
2022-09-13T20:34:39.992Z,2.85
2022-09-13T20:37:08.008Z,2.90
2022-09-13T20:39:35.922Z,2.65
2022-09-13T20:42:03.783Z,2.92
2022-09-13T20:44:33.121Z,3.40
2022-09-13T20:47:01.298Z,3.03
2022-09-13T20:49:30.185Z,3.63
2022-09-13T20:51:58.522Z,3.30
2022-09-13T20:54:26.479Z,3.20
2022-09-13T20:56:54.351Z,4.22
2022-09-13T20:59:22.761Z,5.07
2022-09-13T21:01:52.109Z,5.63
2022-09-13T21:04:20.062Z,5.80
2022-09-13T21:07:05.341Z,7.18
2022-09-13T21:09:33.502Z,7.90
2022-09-13T21:12:02.475Z,8.88
2022-09-13T21:14:34.001Z,8.60
2022-09-13T21:17:06.563Z,9.65
2022-09-13T21:19:35.690Z,10.40
2022-09-13T21:22:04.067Z,10.38
2022-09-13T21:24:32.259Z,11.50
2022-09-13T21:27:00.316Z,11.25
2022-09-13T21:29:28.280Z,11.38
2022-09-13T21:31:56.887Z,12.32
2022-09-13T21:34:27.275Z,12.30
2022-09-13T21:36:55.514Z,11.63
2022-09-13T21:39:23.946Z,13.98
2022-09-13T21:41:51.911Z,13.73
2022-09-13T21:44:19.829Z,14.52
2022-09-13T21:46:48.150Z,12.70
2022-09-13T21:49:16.239Z,13.15
2022-09-13T21:51:47.570Z,14.52
2022-09-13T21:54:17.203Z,14.02
2022-09-13T21:56:49.858Z,15.20
2022-09-13T21:59:19.346Z,15.98
2022-09-13T22:01:50.453Z,15.40
2022-09-13T22:04:20.482Z,13.02
2022-09-13T22:06:52.200Z,12.77
2022-09-13T22:09:21.798Z,12.20
2022-09-13T22:11:50.660Z,10.20
2022-09-13T22:14:21.795Z,11.27
2022-09-13T22:16:50.933Z,11.60
2022-09-13T22:19:20.927Z,11.77
2022-09-13T22:21:54.116Z,11.40
2022-09-13T22:24:23.947Z,10.57
2022-09-13T22:26:53.447Z,10.88
2022-09-13T22:29:22.151Z,12.88
2022-09-13T22:31:52.067Z,11.25
2022-09-13T22:34:21.625Z,11.30
2022-09-13T22:36:51.333Z,10.95
2022-09-13T22:39:19.454Z,10.57
2022-09-13T22:41:47.492Z,8.80
2022-09-13T22:44:15.473Z,9.70
2022-09-13T22:46:45.100Z,9.68
2022-09-13T22:49:14.606Z,9.65
2022-09-13T22:51:45.029Z,9.10
2022-09-13T22:54:15.756Z,10.27
2022-09-13T22:56:43.704Z,9.20
2022-09-13T22:59:14.522Z,10.23
2022-09-13T23:01:42.929Z,8.85
2022-09-13T23:04:11.167Z,8.85
2022-09-13T23:06:39.513Z,7.00
2022-09-13T23:09:09.060Z,6.80
2022-09-13T23:11:40.143Z,7.20
2022-09-13T23:14:10.895Z,7.47
2022-09-13T23:16:41.517Z,7.65
2022-09-13T23:19:11.152Z,7.25
2022-09-13T23:21:39.502Z,8.65
2022-09-13T23:24:14.814Z,8.05
2022-09-13T23:26:44.641Z,7.75
2022-09-13T23:29:15.048Z,7.65
2022-09-13T23:31:43.619Z,7.50
2022-09-13T23:34:12.719Z,6.97
2022-09-13T23:36:42.304Z,6.13
2022-09-13T23:39:13.948Z,6.85
2022-09-13T23:41:47.071Z,7.30
2022-09-13T23:44:15.513Z,7.53
2022-09-13T23:46:43.729Z,7.53
2022-09-13T23:49:11.688Z,9.38
2022-09-13T23:51:39.824Z,7.82
2022-09-13T23:54:08.367Z,8.98
2022-09-13T23:56:36.895Z,7.25
2022-09-13T23:59:06.952Z,7.20
